sensor_id;sensor_type;location;lat;lon;timestamp;P1;durP1;ratioP1;P2;durP2;ratioP2
50225;SDS011;36113;50.742;6.432;2023-04-24T00:00:53;2.15;;;1.30;;
50225;SDS011;36113;50.742;6.432;2023-04-24T00:03:21;1.65;;;1.23;;
50225;SDS011;36113;50.742;6.432;2023-04-24T00:05:49;1.80;;;1.25;;
50225;SDS011;36113;50.742;6.432;2023-04-24T00:08:16;1.20;;;1.20;;
50225;SDS011;36113;50.742;6.432;2023-04-24T00:10:41;1.55;;;1.48;;
50225;SDS011;36113;50.742;6.432;2023-04-24T00:13:07;1.65;;;1.55;;
50225;SDS011;36113;50.742;6.432;2023-04-24T00:15:32;3.42;;;1.73;;
50225;SDS011;36113;50.742;6.432;2023-04-24T00:17:58;2.67;;;1.73;;
50225;SDS011;36113;50.742;6.432;2023-04-24T00:20:23;1.77;;;1.67;;
50225;SDS011;36113;50.742;6.432;2023-04-24T00:22:48;3.30;;;1.75;;
50225;SDS011;36113;50.742;6.432;2023-04-24T00:25:14;2.20;;;2.10;;
50225;SDS011;36113;50.742;6.432;2023-04-24T00:27:39;1.70;;;1.60;;
50225;SDS011;36113;50.742;6.432;2023-04-24T00:30:05;1.75;;;1.50;;
50225;SDS011;36113;50.742;6.432;2023-04-24T00:32:31;1.93;;;1.80;;
50225;SDS011;36113;50.742;6.432;2023-04-24T00:34:56;2.78;;;2.15;;
50225;SDS011;36113;50.742;6.432;2023-04-24T00:37:21;2.00;;;1.45;;
50225;SDS011;36113;50.742;6.432;2023-04-24T00:39:47;2.97;;;1.42;;
50225;SDS011;36113;50.742;6.432;2023-04-24T00:42:12;1.58;;;1.48;;
50225;SDS011;36113;50.742;6.432;2023-04-24T00:44:37;3.78;;;2.33;;
50225;SDS011;36113;50.742;6.432;2023-04-24T00:47:03;5.60;;;3.28;;
50225;SDS011;36113;50.742;6.432;2023-04-24T00:49:29;3.38;;;3.17;;
50225;SDS011;36113;50.742;6.432;2023-04-24T00:51:56;3.45;;;3.15;;
50225;SDS011;36113;50.742;6.432;2023-04-24T00:54:21;4.13;;;3.65;;
50225;SDS011;36113;50.742;6.432;2023-04-24T00:56:47;4.53;;;3.45;;
50225;SDS011;36113;50.742;6.432;2023-04-24T00:59:13;3.30;;;3.10;;
50225;SDS011;36113;50.742;6.432;2023-04-24T01:01:42;4.10;;;3.80;;
50225;SDS011;36113;50.742;6.432;2023-04-24T01:04:09;3.38;;;3.17;;
50225;SDS011;36113;50.742;6.432;2023-04-24T01:06:36;3.78;;;3.53;;
50225;SDS011;36113;50.742;6.432;2023-04-24T01:09:04;4.10;;;3.80;;
50225;SDS011;36113;50.742;6.432;2023-04-24T01:11:29;3.38;;;2.60;;
50225;SDS011;36113;50.742;6.432;2023-04-24T01:13:55;3.78;;;3.38;;
50225;SDS011;36113;50.742;6.432;2023-04-24T01:16:21;4.03;;;3.40;;
50225;SDS011;36113;50.742;6.432;2023-04-24T01:18:47;3.88;;;3.53;;
50225;SDS011;36113;50.742;6.432;2023-04-24T01:21:13;3.85;;;3.55;;
50225;SDS011;36113;50.742;6.432;2023-04-24T01:23:41;3.70;;;3.40;;
50225;SDS011;36113;50.742;6.432;2023-04-24T01:26:07;3.87;;;3.53;;
50225;SDS011;36113;50.742;6.432;2023-04-24T01:28:33;3.83;;;3.33;;
50225;SDS011;36113;50.742;6.432;2023-04-24T01:30:58;3.80;;;3.00;;
50225;SDS011;36113;50.742;6.432;2023-04-24T01:33:24;4.32;;;3.92;;
50225;SDS011;36113;50.742;6.432;2023-04-24T01:35:50;5.13;;;4.53;;
50225;SDS011;36113;50.742;6.432;2023-04-24T01:38:15;8.52;;;5.32;;
50225;SDS011;36113;50.742;6.432;2023-04-24T01:40:41;6.10;;;5.50;;
50225;SDS011;36113;50.742;6.432;2023-04-24T01:43:06;6.22;;;5.53;;
50225;SDS011;36113;50.742;6.432;2023-04-24T01:45:32;6.32;;;4.85;;
50225;SDS011;36113;50.742;6.432;2023-04-24T01:47:57;5.88;;;5.38;;
50225;SDS011;36113;50.742;6.432;2023-04-24T01:50:22;7.32;;;6.28;;
50225;SDS011;36113;50.742;6.432;2023-04-24T01:52:48;7.90;;;6.57;;
50225;SDS011;36113;50.742;6.432;2023-04-24T01:55:13;6.68;;;5.97;;
50225;SDS011;36113;50.742;6.432;2023-04-24T01:57:38;6.97;;;6.38;;
50225;SDS011;36113;50.742;6.432;2023-04-24T02:00:05;8.15;;;6.45;;
50225;SDS011;36113;50.742;6.432;2023-04-24T02:04:57;9.00;;;6.40;;
50225;SDS011;36113;50.742;6.432;2023-04-24T02:07:22;7.40;;;6.65;;
50225;SDS011;36113;50.742;6.432;2023-04-24T02:09:48;8.15;;;6.45;;
50225;SDS011;36113;50.742;6.432;2023-04-24T02:12:13;10.32;;;7.60;;
50225;SDS011;36113;50.742;6.432;2023-04-24T02:14:39;9.10;;;7.30;;
50225;SDS011;36113;50.742;6.432;2023-04-24T02:17:05;9.00;;;8.07;;
50225;SDS011;36113;50.742;6.432;2023-04-24T02:19:31;8.17;;;7.30;;
50225;SDS011;36113;50.742;6.432;2023-04-24T02:21:56;9.85;;;7.72;;
50225;SDS011;36113;50.742;6.432;2023-04-24T02:24:22;10.43;;;8.00;;
50225;SDS011;36113;50.742;6.432;2023-04-24T02:26:47;9.95;;;7.63;;
50225;SDS011;36113;50.742;6.432;2023-04-24T02:29:12;9.90;;;7.97;;
50225;SDS011;36113;50.742;6.432;2023-04-24T02:31:38;9.40;;;8.40;;
50225;SDS011;36113;50.742;6.432;2023-04-24T02:34:03;11.07;;;8.20;;
50225;SDS011;36113;50.742;6.432;2023-04-24T02:36:28;11.88;;;7.53;;
50225;SDS011;36113;50.742;6.432;2023-04-24T02:38:54;8.85;;;7.95;;
50225;SDS011;36113;50.742;6.432;2023-04-24T02:41:19;9.43;;;7.65;;
50225;SDS011;36113;50.742;6.432;2023-04-24T02:43:45;12.05;;;8.40;;
50225;SDS011;36113;50.742;6.432;2023-04-24T02:46:10;9.07;;;7.70;;
50225;SDS011;36113;50.742;6.432;2023-04-24T02:48:36;9.07;;;8.18;;
50225;SDS011;36113;50.742;6.432;2023-04-24T02:51:01;11.05;;;7.68;;
50225;SDS011;36113;50.742;6.432;2023-04-24T02:53:26;9.45;;;7.88;;
50225;SDS011;36113;50.742;6.432;2023-04-24T02:55:52;9.20;;;7.07;;
50225;SDS011;36113;50.742;6.432;2023-04-24T02:58:17;10.18;;;7.38;;
50225;SDS011;36113;50.742;6.432;2023-04-24T03:00:44;8.32;;;7.53;;
50225;SDS011;36113;50.742;6.432;2023-04-24T03:03:10;8.00;;;7.05;;
50225;SDS011;36113;50.742;6.432;2023-04-24T03:05:35;9.02;;;6.80;;
50225;SDS011;36113;50.742;6.432;2023-04-24T03:08:01;8.73;;;6.70;;
50225;SDS011;36113;50.742;6.432;2023-04-24T03:10:26;9.73;;;7.00;;
50225;SDS011;36113;50.742;6.432;2023-04-24T03:12:51;10.23;;;7.13;;
50225;SDS011;36113;50.742;6.432;2023-04-24T03:15:16;10.88;;;7.78;;
50225;SDS011;36113;50.742;6.432;2023-04-24T03:17:42;11.85;;;7.35;;
50225;SDS011;36113;50.742;6.432;2023-04-24T03:20:07;9.27;;;6.93;;
50225;SDS011;36113;50.742;6.432;2023-04-24T03:22:33;10.05;;;7.15;;
50225;SDS011;36113;50.742;6.432;2023-04-24T03:24:59;7.03;;;6.22;;
50225;SDS011;36113;50.742;6.432;2023-04-24T03:27:24;8.50;;;7.25;;
50225;SDS011;36113;50.742;6.432;2023-04-24T03:29:49;13.95;;;7.90;;
50225;SDS011;36113;50.742;6.432;2023-04-24T03:32:20;9.00;;;7.32;;
50225;SDS011;36113;50.742;6.432;2023-04-24T03:34:47;11.82;;;8.07;;
50225;SDS011;36113;50.742;6.432;2023-04-24T03:37:12;8.65;;;6.80;;
50225;SDS011;36113;50.742;6.432;2023-04-24T03:39:37;8.55;;;7.60;;
50225;SDS011;36113;50.742;6.432;2023-04-24T03:42:02;9.60;;;7.13;;
50225;SDS011;36113;50.742;6.432;2023-04-24T03:44:28;7.43;;;6.72;;
50225;SDS011;36113;50.742;6.432;2023-04-24T03:46:53;7.93;;;6.82;;
50225;SDS011;36113;50.742;6.432;2023-04-24T03:49:19;8.10;;;7.30;;
50225;SDS011;36113;50.742;6.432;2023-04-24T03:51:44;9.57;;;6.40;;
50225;SDS011;36113;50.742;6.432;2023-04-24T03:54:09;7.50;;;6.55;;
50225;SDS011;36113;50.742;6.432;2023-04-24T03:56:35;8.52;;;7.00;;
50225;SDS011;36113;50.742;6.432;2023-04-24T03:59:00;8.18;;;6.60;;
50225;SDS011;36113;50.742;6.432;2023-04-24T04:01:26;6.63;;;5.97;;
50225;SDS011;36113;50.742;6.432;2023-04-24T04:06:18;8.40;;;5.38;;
50225;SDS011;36113;50.742;6.432;2023-04-24T04:08:44;6.07;;;5.45;;
50225;SDS011;36113;50.742;6.432;2023-04-24T04:11:09;7.20;;;5.82;;
50225;SDS011;36113;50.742;6.432;2023-04-24T04:13:35;6.85;;;6.15;;
50225;SDS011;36113;50.742;6.432;2023-04-24T04:16:00;7.38;;;6.20;;
50225;SDS011;36113;50.742;6.432;2023-04-24T04:18:25;9.30;;;5.97;;
50225;SDS011;36113;50.742;6.432;2023-04-24T04:20:50;11.10;;;6.95;;
50225;SDS011;36113;50.742;6.432;2023-04-24T04:23:16;6.85;;;5.85;;
50225;SDS011;36113;50.742;6.432;2023-04-24T04:25:41;7.72;;;6.90;;
50225;SDS011;36113;50.742;6.432;2023-04-24T04:28:06;8.20;;;7.28;;
50225;SDS011;36113;50.742;6.432;2023-04-24T04:30:32;8.68;;;7.40;;
50225;SDS011;36113;50.742;6.432;2023-04-24T04:32:57;8.80;;;7.00;;
50225;SDS011;36113;50.742;6.432;2023-04-24T04:35:24;10.40;;;6.50;;
50225;SDS011;36113;50.742;6.432;2023-04-24T04:37:49;8.30;;;6.88;;
50225;SDS011;36113;50.742;6.432;2023-04-24T04:40:16;7.85;;;6.63;;
50225;SDS011;36113;50.742;6.432;2023-04-24T04:42:42;7.88;;;6.88;;
50225;SDS011;36113;50.742;6.432;2023-04-24T04:45:10;7.30;;;6.57;;
50225;SDS011;36113;50.742;6.432;2023-04-24T04:47:36;8.48;;;6.35;;
50225;SDS011;36113;50.742;6.432;2023-04-24T04:50:02;12.05;;;7.32;;
50225;SDS011;36113;50.742;6.432;2023-04-24T04:52:29;10.85;;;6.72;;
50225;SDS011;36113;50.742;6.432;2023-04-24T04:54:54;7.63;;;6.82;;
50225;SDS011;36113;50.742;6.432;2023-04-24T04:57:20;9.85;;;6.38;;
50225;SDS011;36113;50.742;6.432;2023-04-24T04:59:45;7.93;;;6.05;;
50225;SDS011;36113;50.742;6.432;2023-04-24T05:02:11;7.38;;;6.68;;
50225;SDS011;36113;50.742;6.432;2023-04-24T05:04:36;7.32;;;6.30;;
50225;SDS011;36113;50.742;6.432;2023-04-24T05:07:01;8.32;;;6.45;;
50225;SDS011;36113;50.742;6.432;2023-04-24T05:09:27;9.93;;;5.88;;
50225;SDS011;36113;50.742;6.432;2023-04-24T05:11:54;6.43;;;5.80;;
50225;SDS011;36113;50.742;6.432;2023-04-24T05:14:20;6.72;;;5.05;;
50225;SDS011;36113;50.742;6.432;2023-04-24T05:16:45;11.23;;;6.47;;
50225;SDS011;36113;50.742;6.432;2023-04-24T05:19:11;8.65;;;5.55;;
50225;SDS011;36113;50.742;6.432;2023-04-24T05:21:38;6.47;;;5.28;;
50225;SDS011;36113;50.742;6.432;2023-04-24T05:24:04;6.38;;;5.13;;
50225;SDS011;36113;50.742;6.432;2023-04-24T05:26:29;7.13;;;5.18;;
50225;SDS011;36113;50.742;6.432;2023-04-24T05:28:55;5.18;;;4.72;;
50225;SDS011;36113;50.742;6.432;2023-04-24T05:31:20;4.95;;;4.40;;
50225;SDS011;36113;50.742;6.432;2023-04-24T05:33:46;5.25;;;4.72;;
50225;SDS011;36113;50.742;6.432;2023-04-24T05:36:11;4.93;;;4.45;;
50225;SDS011;36113;50.742;6.432;2023-04-24T05:38:37;5.72;;;3.90;;
50225;SDS011;36113;50.742;6.432;2023-04-24T05:41:02;3.88;;;3.50;;
50225;SDS011;36113;50.742;6.432;2023-04-24T05:43:27;3.55;;;3.25;;
50225;SDS011;36113;50.742;6.432;2023-04-24T05:45:52;2.72;;;2.55;;
50225;SDS011;36113;50.742;6.432;2023-04-24T05:48:18;3.25;;;2.85;;
50225;SDS011;36113;50.742;6.432;2023-04-24T05:50:44;5.63;;;2.88;;
50225;SDS011;36113;50.742;6.432;2023-04-24T05:53:09;2.95;;;2.75;;
50225;SDS011;36113;50.742;6.432;2023-04-24T05:55:35;2.97;;;2.58;;
50225;SDS011;36113;50.742;6.432;2023-04-24T05:58:01;2.60;;;2.40;;
50225;SDS011;36113;50.742;6.432;2023-04-24T06:00:27;4.72;;;2.42;;
50225;SDS011;36113;50.742;6.432;2023-04-24T06:02:53;2.55;;;2.35;;
50225;SDS011;36113;50.742;6.432;2023-04-24T06:05:19;2.92;;;2.63;;
50225;SDS011;36113;50.742;6.432;2023-04-24T06:07:44;3.50;;;2.90;;
50225;SDS011;36113;50.742;6.432;2023-04-24T06:10:10;2.50;;;2.30;;
50225;SDS011;36113;50.742;6.432;2023-04-24T06:12:35;2.90;;;2.65;;
50225;SDS011;36113;50.742;6.432;2023-04-24T06:15:01;2.65;;;2.47;;
50225;SDS011;36113;50.742;6.432;2023-04-24T06:17:27;2.67;;;2.47;;
50225;SDS011;36113;50.742;6.432;2023-04-24T06:19:52;2.53;;;2.40;;
50225;SDS011;36113;50.742;6.432;2023-04-24T06:22:18;3.15;;;2.40;;
50225;SDS011;36113;50.742;6.432;2023-04-24T06:24:43;2.45;;;2.13;;
50225;SDS011;36113;50.742;6.432;2023-04-24T06:27:08;2.30;;;2.20;;
50225;SDS011;36113;50.742;6.432;2023-04-24T06:29:35;2.65;;;2.45;;
50225;SDS011;36113;50.742;6.432;2023-04-24T06:32:01;3.13;;;2.70;;
50225;SDS011;36113;50.742;6.432;2023-04-24T06:34:26;3.55;;;2.90;;
50225;SDS011;36113;50.742;6.432;2023-04-24T06:36:51;2.60;;;2.38;;
50225;SDS011;36113;50.742;6.432;2023-04-24T06:39:17;1.98;;;1.88;;
50225;SDS011;36113;50.742;6.432;2023-04-24T06:41:42;3.22;;;2.90;;
50225;SDS011;36113;50.742;6.432;2023-04-24T06:44:07;2.45;;;2.30;;
50225;SDS011;36113;50.742;6.432;2023-04-24T06:46:33;2.35;;;2.17;;
50225;SDS011;36113;50.742;6.432;2023-04-24T06:48:58;2.03;;;1.85;;
50225;SDS011;36113;50.742;6.432;2023-04-24T06:51:25;2.30;;;2.20;;
50225;SDS011;36113;50.742;6.432;2023-04-24T06:53:52;2.10;;;1.95;;
50225;SDS011;36113;50.742;6.432;2023-04-24T06:56:18;2.15;;;2.00;;
50225;SDS011;36113;50.742;6.432;2023-04-24T06:58:44;2.30;;;2.10;;
50225;SDS011;36113;50.742;6.432;2023-04-24T07:01:10;2.65;;;1.98;;
50225;SDS011;36113;50.742;6.432;2023-04-24T07:03:36;2.38;;;2.28;;
50225;SDS011;36113;50.742;6.432;2023-04-24T07:06:01;2.35;;;2.15;;
50225;SDS011;36113;50.742;6.432;2023-04-24T07:08:28;3.03;;;2.83;;
50225;SDS011;36113;50.742;6.432;2023-04-24T07:10:59;2.40;;;2.20;;
50225;SDS011;36113;50.742;6.432;2023-04-24T07:13:25;2.63;;;2.42;;
50225;SDS011;36113;50.742;6.432;2023-04-24T07:15:51;4.60;;;2.38;;
50225;SDS011;36113;50.742;6.432;2023-04-24T07:18:20;3.03;;;2.78;;
50225;SDS011;36113;50.742;6.432;2023-04-24T07:20:46;5.22;;;3.10;;
50225;SDS011;36113;50.742;6.432;2023-04-24T07:23:12;2.60;;;2.40;;
50225;SDS011;36113;50.742;6.432;2023-04-24T07:25:37;2.88;;;2.42;;
50225;SDS011;36113;50.742;6.432;2023-04-24T07:28:03;2.20;;;2.10;;
50225;SDS011;36113;50.742;6.432;2023-04-24T07:30:29;2.13;;;2.00;;
50225;SDS011;36113;50.742;6.432;2023-04-24T07:32:55;4.78;;;2.20;;
50225;SDS011;36113;50.742;6.432;2023-04-24T07:35:20;2.00;;;1.90;;
50225;SDS011;36113;50.742;6.432;2023-04-24T07:37:46;2.63;;;2.08;;
50225;SDS011;36113;50.742;6.432;2023-04-24T07:40:14;2.38;;;2.20;;
50225;SDS011;36113;50.742;6.432;2023-04-24T07:42:40;2.20;;;2.10;;
50225;SDS011;36113;50.742;6.432;2023-04-24T07:45:06;2.40;;;2.20;;
50225;SDS011;36113;50.742;6.432;2023-04-24T07:47:32;3.85;;;2.38;;
50225;SDS011;36113;50.742;6.432;2023-04-24T07:49:58;2.50;;;2.30;;
50225;SDS011;36113;50.742;6.432;2023-04-24T07:52:24;2.63;;;2.35;;
50225;SDS011;36113;50.742;6.432;2023-04-24T07:54:49;2.80;;;2.55;;
50225;SDS011;36113;50.742;6.432;2023-04-24T07:57:15;2.85;;;2.63;;
50225;SDS011;36113;50.742;6.432;2023-04-24T07:59:41;3.03;;;2.83;;
50225;SDS011;36113;50.742;6.432;2023-04-24T08:02:06;3.33;;;2.90;;
50225;SDS011;36113;50.742;6.432;2023-04-24T08:04:31;3.45;;;3.15;;
50225;SDS011;36113;50.742;6.432;2023-04-24T08:06:57;3.20;;;3.00;;
50225;SDS011;36113;50.742;6.432;2023-04-24T08:09:22;3.42;;;3.15;;
50225;SDS011;36113;50.742;6.432;2023-04-24T08:11:48;3.33;;;3.10;;
50225;SDS011;36113;50.742;6.432;2023-04-24T08:14:13;4.22;;;3.75;;
50225;SDS011;36113;50.742;6.432;2023-04-24T08:16:39;3.90;;;3.60;;
50225;SDS011;36113;50.742;6.432;2023-04-24T08:19:05;5.00;;;4.60;;
50225;SDS011;36113;50.742;6.432;2023-04-24T08:21:30;5.47;;;3.80;;
50225;SDS011;36113;50.742;6.432;2023-04-24T08:23:56;5.22;;;4.28;;
50225;SDS011;36113;50.742;6.432;2023-04-24T08:26:22;4.78;;;4.38;;
50225;SDS011;36113;50.742;6.432;2023-04-24T08:28:47;7.20;;;4.13;;
50225;SDS011;36113;50.742;6.432;2023-04-24T08:31:12;4.28;;;3.95;;
50225;SDS011;36113;50.742;6.432;2023-04-24T08:33:38;5.03;;;4.35;;
50225;SDS011;36113;50.742;6.432;2023-04-24T08:36:03;4.70;;;4.30;;
50225;SDS011;36113;50.742;6.432;2023-04-24T08:38:30;5.07;;;4.57;;
50225;SDS011;36113;50.742;6.432;2023-04-24T08:40:59;5.03;;;4.47;;
50225;SDS011;36113;50.742;6.432;2023-04-24T08:43:26;7.78;;;4.97;;
50225;SDS011;36113;50.742;6.432;2023-04-24T08:45:52;5.30;;;4.90;;
50225;SDS011;36113;50.742;6.432;2023-04-24T08:48:20;8.57;;;4.95;;
50225;SDS011;36113;50.742;6.432;2023-04-24T08:53:13;4.85;;;4.22;;
50225;SDS011;36113;50.742;6.432;2023-04-24T08:55:39;4.65;;;4.10;;
50225;SDS011;36113;50.742;6.432;2023-04-24T08:58:07;3.53;;;3.30;;
50225;SDS011;36113;50.742;6.432;2023-04-24T09:00:33;4.45;;;4.05;;
50225;SDS011;36113;50.742;6.432;2023-04-24T09:02:59;5.43;;;4.35;;
50225;SDS011;36113;50.742;6.432;2023-04-24T09:05:25;4.57;;;3.85;;
50225;SDS011;36113;50.742;6.432;2023-04-24T09:07:55;3.90;;;3.50;;
50225;SDS011;36113;50.742;6.432;2023-04-24T09:10:24;4.05;;;3.65;;
50225;SDS011;36113;50.742;6.432;2023-04-24T09:12:50;3.72;;;3.45;;
50225;SDS011;36113;50.742;6.432;2023-04-24T09:15:16;3.87;;;3.57;;
50225;SDS011;36113;50.742;6.432;2023-04-24T09:17:43;4.35;;;3.65;;
50225;SDS011;36113;50.742;6.432;2023-04-24T09:20:09;4.82;;;4.35;;
50225;SDS011;36113;50.742;6.432;2023-04-24T09:22:34;4.82;;;4.38;;
50225;SDS011;36113;50.742;6.432;2023-04-24T09:25:09;5.22;;;4.57;;
50225;SDS011;36113;50.742;6.432;2023-04-24T09:27:38;5.75;;;5.20;;
50225;SDS011;36113;50.742;6.432;2023-04-24T09:30:07;6.75;;;5.30;;
50225;SDS011;36113;50.742;6.432;2023-04-24T09:32:33;5.68;;;5.18;;
50225;SDS011;36113;50.742;6.432;2023-04-24T09:35:05;9.38;;;5.78;;
50225;SDS011;36113;50.742;6.432;2023-04-24T09:37:36;8.55;;;5.82;;
50225;SDS011;36113;50.742;6.432;2023-04-24T09:40:10;6.72;;;6.13;;
50225;SDS011;36113;50.742;6.432;2023-04-24T09:42:43;8.63;;;6.38;;
50225;SDS011;36113;50.742;6.432;2023-04-24T09:45:28;10.57;;;6.25;;
50225;SDS011;36113;50.742;6.432;2023-04-24T09:48:00;6.97;;;6.20;;
50225;SDS011;36113;50.742;6.432;2023-04-24T09:50:25;7.53;;;6.70;;
50225;SDS011;36113;50.742;6.432;2023-04-24T09:53:04;9.38;;;6.70;;
50225;SDS011;36113;50.742;6.432;2023-04-24T09:55:30;10.65;;;8.18;;
50225;SDS011;36113;50.742;6.432;2023-04-24T09:57:57;10.98;;;7.47;;
50225;SDS011;36113;50.742;6.432;2023-04-24T10:00:30;11.20;;;8.68;;
50225;SDS011;36113;50.742;6.432;2023-04-24T10:05:23;12.60;;;7.85;;
50225;SDS011;36113;50.742;6.432;2023-04-24T10:08:11;14.35;;;7.47;;
50225;SDS011;36113;50.742;6.432;2023-04-24T10:10:41;13.45;;;8.05;;
50225;SDS011;36113;50.742;6.432;2023-04-24T10:13:10;9.63;;;7.13;;
50225;SDS011;36113;50.742;6.432;2023-04-24T10:15:37;13.90;;;7.63;;
50225;SDS011;36113;50.742;6.432;2023-04-24T10:18:06;14.63;;;8.38;;
50225;SDS011;36113;50.742;6.432;2023-04-24T10:20:32;12.60;;;7.50;;
50225;SDS011;36113;50.742;6.432;2023-04-24T10:22:59;9.45;;;6.75;;
50225;SDS011;36113;50.742;6.432;2023-04-24T10:25:26;10.32;;;5.60;;
50225;SDS011;36113;50.742;6.432;2023-04-24T10:27:53;9.50;;;5.60;;
50225;SDS011;36113;50.742;6.432;2023-04-24T10:30:24;6.05;;;5.30;;
50225;SDS011;36113;50.742;6.432;2023-04-24T10:32:50;10.27;;;5.43;;
50225;SDS011;36113;50.742;6.432;2023-04-24T10:35:15;8.13;;;5.38;;
50225;SDS011;36113;50.742;6.432;2023-04-24T10:37:44;6.22;;;5.28;;
50225;SDS011;36113;50.742;6.432;2023-04-24T10:40:31;15.27;;;5.15;;
50225;SDS011;36113;50.742;6.432;2023-04-24T10:42:58;5.93;;;3.92;;
50225;SDS011;36113;50.742;6.432;2023-04-24T10:45:24;8.95;;;4.88;;
50225;SDS011;36113;50.742;6.432;2023-04-24T10:47:53;9.75;;;4.50;;
50225;SDS011;36113;50.742;6.432;2023-04-24T10:50:23;7.55;;;5.03;;
50225;SDS011;36113;50.742;6.432;2023-04-24T10:52:51;10.95;;;6.47;;
50225;SDS011;36113;50.742;6.432;2023-04-24T10:55:38;8.73;;;4.97;;
50225;SDS011;36113;50.742;6.432;2023-04-24T10:58:09;7.95;;;5.07;;
50225;SDS011;36113;50.742;6.432;2023-04-24T11:00:39;9.02;;;5.60;;
50225;SDS011;36113;50.742;6.432;2023-04-24T11:03:06;10.55;;;5.72;;
50225;SDS011;36113;50.742;6.432;2023-04-24T11:08:22;10.68;;;6.38;;
50225;SDS011;36113;50.742;6.432;2023-04-24T11:10:54;10.63;;;5.97;;
50225;SDS011;36113;50.742;6.432;2023-04-24T11:19:05;11.00;;;7.18;;
50225;SDS011;36113;50.742;6.432;2023-04-24T11:24:23;10.85;;;7.63;;
50225;SDS011;36113;50.742;6.432;2023-04-24T11:29:43;11.10;;;7.47;;
50225;SDS011;36113;50.742;6.432;2023-04-24T11:32:17;9.18;;;7.53;;
50225;SDS011;36113;50.742;6.432;2023-04-24T11:34:51;11.73;;;7.57;;
50225;SDS011;36113;50.742;6.432;2023-04-24T11:37:18;10.43;;;7.30;;
50225;SDS011;36113;50.742;6.432;2023-04-24T11:39:43;10.57;;;7.50;;
50225;SDS011;36113;50.742;6.432;2023-04-24T11:42:09;11.35;;;7.90;;
50225;SDS011;36113;50.742;6.432;2023-04-24T11:44:35;11.05;;;7.95;;
50225;SDS011;36113;50.742;6.432;2023-04-24T11:47:04;9.82;;;7.38;;
50225;SDS011;36113;50.742;6.432;2023-04-24T11:49:30;8.48;;;7.20;;
50225;SDS011;36113;50.742;6.432;2023-04-24T11:51:55;10.48;;;6.88;;
50225;SDS011;36113;50.742;6.432;2023-04-24T11:54:21;9.65;;;6.88;;
50225;SDS011;36113;50.742;6.432;2023-04-24T11:56:47;12.48;;;6.22;;
50225;SDS011;36113;50.742;6.432;2023-04-24T11:59:13;7.80;;;6.00;;
50225;SDS011;36113;50.742;6.432;2023-04-24T12:01:44;7.43;;;5.18;;
50225;SDS011;36113;50.742;6.432;2023-04-24T12:04:11;8.18;;;5.47;;
50225;SDS011;36113;50.742;6.432;2023-04-24T12:06:37;9.63;;;5.85;;
50225;SDS011;36113;50.742;6.432;2023-04-24T12:09:02;8.57;;;4.93;;
50225;SDS011;36113;50.742;6.432;2023-04-24T12:11:28;10.25;;;5.60;;
50225;SDS011;36113;50.742;6.432;2023-04-24T12:13:54;11.27;;;5.85;;
50225;SDS011;36113;50.742;6.432;2023-04-24T12:16:19;7.93;;;5.22;;
50225;SDS011;36113;50.742;6.432;2023-04-24T12:18:45;7.03;;;5.18;;
50225;SDS011;36113;50.742;6.432;2023-04-24T12:21:22;11.10;;;5.40;;
50225;SDS011;36113;50.742;6.432;2023-04-24T12:23:54;7.03;;;4.72;;
50225;SDS011;36113;50.742;6.432;2023-04-24T12:26:19;8.65;;;5.30;;
50225;SDS011;36113;50.742;6.432;2023-04-24T12:28:47;6.65;;;5.00;;
50225;SDS011;36113;50.742;6.432;2023-04-24T12:31:16;9.90;;;6.25;;
50225;SDS011;36113;50.742;6.432;2023-04-24T12:33:42;8.00;;;5.40;;
50225;SDS011;36113;50.742;6.432;2023-04-24T12:36:09;7.83;;;5.67;;
50225;SDS011;36113;50.742;6.432;2023-04-24T12:38:37;8.70;;;5.10;;
50225;SDS011;36113;50.742;6.432;2023-04-24T12:41:06;6.97;;;5.47;;
50225;SDS011;36113;50.742;6.432;2023-04-24T12:43:35;7.90;;;5.80;;
50225;SDS011;36113;50.742;6.432;2023-04-24T12:46:01;6.90;;;5.32;;
50225;SDS011;36113;50.742;6.432;2023-04-24T12:48:28;8.53;;;5.93;;
50225;SDS011;36113;50.742;6.432;2023-04-24T12:50:54;9.15;;;6.10;;
50225;SDS011;36113;50.742;6.432;2023-04-24T12:53:20;9.32;;;5.75;;
50225;SDS011;36113;50.742;6.432;2023-04-24T12:55:45;8.73;;;5.78;;
50225;SDS011;36113;50.742;6.432;2023-04-24T12:58:12;9.23;;;6.75;;
50225;SDS011;36113;50.742;6.432;2023-04-24T13:00:38;7.13;;;5.60;;
50225;SDS011;36113;50.742;6.432;2023-04-24T13:03:04;8.45;;;5.15;;
50225;SDS011;36113;50.742;6.432;2023-04-24T13:05:29;8.13;;;5.45;;
50225;SDS011;36113;50.742;6.432;2023-04-24T13:07:54;10.93;;;5.70;;
50225;SDS011;36113;50.742;6.432;2023-04-24T13:10:20;13.77;;;6.03;;
50225;SDS011;36113;50.742;6.432;2023-04-24T13:12:45;9.68;;;4.97;;
50225;SDS011;36113;50.742;6.432;2023-04-24T13:15:11;7.55;;;5.15;;
50225;SDS011;36113;50.742;6.432;2023-04-24T13:17:37;6.15;;;4.55;;
50225;SDS011;36113;50.742;6.432;2023-04-24T13:20:02;7.22;;;4.93;;
50225;SDS011;36113;50.742;6.432;2023-04-24T13:22:28;4.93;;;4.53;;
50225;SDS011;36113;50.742;6.432;2023-04-24T13:24:53;9.48;;;4.63;;
50225;SDS011;36113;50.742;6.432;2023-04-24T13:27:27;8.15;;;4.47;;
50225;SDS011;36113;50.742;6.432;2023-04-24T13:29:53;5.95;;;4.55;;
50225;SDS011;36113;50.742;6.432;2023-04-24T13:32:18;5.30;;;4.28;;
50225;SDS011;36113;50.742;6.432;2023-04-24T13:34:43;6.68;;;4.22;;
50225;SDS011;36113;50.742;6.432;2023-04-24T13:37:09;6.03;;;3.88;;
50225;SDS011;36113;50.742;6.432;2023-04-24T13:39:34;5.55;;;4.78;;
50225;SDS011;36113;50.742;6.432;2023-04-24T13:42:00;6.97;;;4.40;;
50225;SDS011;36113;50.742;6.432;2023-04-24T13:44:25;6.68;;;4.20;;
50225;SDS011;36113;50.742;6.432;2023-04-24T13:46:52;6.33;;;4.10;;
50225;SDS011;36113;50.742;6.432;2023-04-24T13:49:19;5.63;;;4.47;;
50225;SDS011;36113;50.742;6.432;2023-04-24T13:51:46;5.05;;;3.90;;
50225;SDS011;36113;50.742;6.432;2023-04-24T13:54:11;6.50;;;4.00;;
50225;SDS011;36113;50.742;6.432;2023-04-24T13:56:37;4.97;;;4.35;;
50225;SDS011;36113;50.742;6.432;2023-04-24T13:59:04;5.63;;;3.63;;
50225;SDS011;36113;50.742;6.432;2023-04-24T14:01:30;4.67;;;4.27;;
50225;SDS011;36113;50.742;6.432;2023-04-24T14:03:55;8.05;;;4.43;;
50225;SDS011;36113;50.742;6.432;2023-04-24T14:06:21;8.85;;;4.57;;
50225;SDS011;36113;50.742;6.432;2023-04-24T14:08:48;5.72;;;4.88;;
50225;SDS011;36113;50.742;6.432;2023-04-24T14:11:13;6.63;;;4.72;;
50225;SDS011;36113;50.742;6.432;2023-04-24T14:13:40;7.37;;;4.57;;
50225;SDS011;36113;50.742;6.432;2023-04-24T14:16:06;6.00;;;4.97;;
50225;SDS011;36113;50.742;6.432;2023-04-24T14:18:32;9.02;;;4.38;;
50225;SDS011;36113;50.742;6.432;2023-04-24T14:20:58;6.63;;;5.15;;
50225;SDS011;36113;50.742;6.432;2023-04-24T14:23:24;6.53;;;4.80;;
50225;SDS011;36113;50.742;6.432;2023-04-24T14:25:49;7.13;;;4.80;;
50225;SDS011;36113;50.742;6.432;2023-04-24T14:28:17;11.80;;;5.18;;
50225;SDS011;36113;50.742;6.432;2023-04-24T14:30:43;6.28;;;5.20;;
50225;SDS011;36113;50.742;6.432;2023-04-24T14:33:09;5.85;;;5.22;;
50225;SDS011;36113;50.742;6.432;2023-04-24T14:35:35;10.60;;;5.45;;
50225;SDS011;36113;50.742;6.432;2023-04-24T14:38:01;5.47;;;4.10;;
50225;SDS011;36113;50.742;6.432;2023-04-24T14:40:26;6.28;;;4.75;;
50225;SDS011;36113;50.742;6.432;2023-04-24T14:42:51;7.35;;;4.75;;
50225;SDS011;36113;50.742;6.432;2023-04-24T14:45:17;6.82;;;4.68;;
50225;SDS011;36113;50.742;6.432;2023-04-24T14:47:42;8.07;;;4.70;;
50225;SDS011;36113;50.742;6.432;2023-04-24T14:50:08;6.10;;;5.47;;
50225;SDS011;36113;50.742;6.432;2023-04-24T14:52:33;6.47;;;4.78;;
50225;SDS011;36113;50.742;6.432;2023-04-24T14:55:00;6.80;;;5.17;;
50225;SDS011;36113;50.742;6.432;2023-04-24T14:57:25;7.55;;;5.30;;
50225;SDS011;36113;50.742;6.432;2023-04-24T14:59:51;5.15;;;4.70;;
50225;SDS011;36113;50.742;6.432;2023-04-24T15:02:16;5.35;;;4.93;;
50225;SDS011;36113;50.742;6.432;2023-04-24T15:04:41;7.35;;;5.65;;